sensor_id;sensor_type;location;lat;lon;timestamp;P1;durP1;ratioP1;P2;durP2;ratioP2
82779;SDS011;72511;45.120;20.720;2023-10-13T00:07:20;6.28;;;3.65;;
82779;SDS011;72511;45.120;20.720;2023-10-13T00:17:24;8.82;;;5.22;;
82779;SDS011;72511;45.120;20.720;2023-10-13T00:27:25;8.68;;;5.10;;
82779;SDS011;72511;45.120;20.720;2023-10-13T00:37:30;10.50;;;6.05;;
82779;SDS011;72511;45.120;20.720;2023-10-13T00:47:42;8.10;;;5.10;;
82779;SDS011;72511;45.120;20.720;2023-10-13T00:57:57;11.85;;;5.47;;
82779;SDS011;72511;45.120;20.720;2023-10-13T01:08:04;10.23;;;5.82;;
82779;SDS011;72511;45.120;20.720;2023-10-13T01:18:06;14.65;;;5.38;;
82779;SDS011;72511;45.120;20.720;2023-10-13T01:28:14;17.58;;;5.72;;
82779;SDS011;72511;45.120;20.720;2023-10-13T01:38:18;10.38;;;4.93;;
82779;SDS011;72511;45.120;20.720;2023-10-13T01:48:20;10.75;;;5.95;;
82779;SDS011;72511;45.120;20.720;2023-10-13T01:58:23;10.55;;;5.45;;
82779;SDS011;72511;45.120;20.720;2023-10-13T02:08:27;11.88;;;6.78;;
82779;SDS011;72511;45.120;20.720;2023-10-13T02:18:29;13.75;;;6.70;;
82779;SDS011;72511;45.120;20.720;2023-10-13T02:28:42;12.90;;;6.05;;
82779;SDS011;72511;45.120;20.720;2023-10-13T02:38:52;9.75;;;6.00;;
82779;SDS011;72511;45.120;20.720;2023-10-13T02:48:53;12.20;;;6.88;;
82779;SDS011;72511;45.120;20.720;2023-10-13T02:58:55;11.15;;;6.43;;
82779;SDS011;72511;45.120;20.720;2023-10-13T03:09:09;9.43;;;6.15;;
82779;SDS011;72511;45.120;20.720;2023-10-13T03:19:20;10.35;;;6.13;;
82779;SDS011;72511;45.120;20.720;2023-10-13T03:29:22;14.38;;;6.18;;
82779;SDS011;72511;45.120;20.720;2023-10-13T03:39:24;8.80;;;6.15;;
82779;SDS011;72511;45.120;20.720;2023-10-13T03:49:30;12.63;;;7.13;;
82779;SDS011;72511;45.120;20.720;2023-10-13T03:59:32;12.70;;;7.35;;
82779;SDS011;72511;45.120;20.720;2023-10-13T04:09:36;12.57;;;7.90;;
82779;SDS011;72511;45.120;20.720;2023-10-13T04:19:56;15.43;;;9.13;;
82779;SDS011;72511;45.120;20.720;2023-10-13T04:30:08;21.15;;;11.75;;
82779;SDS011;72511;45.120;20.720;2023-10-13T04:40:10;21.00;;;13.73;;
82779;SDS011;72511;45.120;20.720;2023-10-13T04:50:11;26.33;;;15.15;;
82779;SDS011;72511;45.120;20.720;2023-10-13T05:00:23;21.20;;;13.13;;
82779;SDS011;72511;45.120;20.720;2023-10-13T05:10:47;22.48;;;12.07;;
82779;SDS011;72511;45.120;20.720;2023-10-13T05:21:07;21.30;;;12.18;;
82779;SDS011;72511;45.120;20.720;2023-10-13T05:31:27;17.38;;;9.77;;
82779;SDS011;72511;45.120;20.720;2023-10-13T05:41:46;19.88;;;10.73;;
82779;SDS011;72511;45.120;20.720;2023-10-13T05:52:06;20.63;;;12.57;;
82779;SDS011;72511;45.120;20.720;2023-10-13T06:02:20;21.05;;;12.77;;
82779;SDS011;72511;45.120;20.720;2023-10-13T06:12:40;25.63;;;14.30;;
82779;SDS011;72511;45.120;20.720;2023-10-13T06:23:00;20.58;;;13.48;;
82779;SDS011;72511;45.120;20.720;2023-10-13T06:33:20;27.73;;;13.27;;
82779;SDS011;72511;45.120;20.720;2023-10-13T06:43:22;21.60;;;13.68;;
82779;SDS011;72511;45.120;20.720;2023-10-13T06:53:24;36.03;;;15.38;;
82779;SDS011;72511;45.120;20.720;2023-10-13T07:03:26;21.15;;;14.82;;
82779;SDS011;72511;45.120;20.720;2023-10-13T07:13:30;21.92;;;14.05;;
82779;SDS011;72511;45.120;20.720;2023-10-13T07:23:39;22.30;;;13.85;;
82779;SDS011;72511;45.120;20.720;2023-10-13T07:33:40;22.33;;;13.68;;
82779;SDS011;72511;45.120;20.720;2023-10-13T07:43:42;22.38;;;12.63;;
82779;SDS011;72511;45.120;20.720;2023-10-13T07:53:45;17.92;;;12.38;;
82779;SDS011;72511;45.120;20.720;2023-10-13T08:03:50;16.83;;;10.98;;
82779;SDS011;72511;45.120;20.720;2023-10-13T08:14:05;18.58;;;13.00;;
82779;SDS011;72511;45.120;20.720;2023-10-13T08:24:23;19.55;;;13.13;;
82779;SDS011;72511;45.120;20.720;2023-10-13T08:34:40;26.05;;;13.63;;
82779;SDS011;72511;45.120;20.720;2023-10-13T08:44:44;19.58;;;11.18;;
82779;SDS011;72511;45.120;20.720;2023-10-13T08:54:46;19.27;;;10.70;;
82779;SDS011;72511;45.120;20.720;2023-10-13T09:05:03;21.73;;;11.60;;
82779;SDS011;72511;45.120;20.720;2023-10-13T09:15:28;21.80;;;10.23;;
82779;SDS011;72511;45.120;20.720;2023-10-13T09:25:49;25.50;;;10.30;;
82779;SDS011;72511;45.120;20.720;2023-10-13T09:36:09;17.95;;;9.85;;
82779;SDS011;72511;45.120;20.720;2023-10-13T09:46:15;16.17;;;9.77;;
82779;SDS011;72511;45.120;20.720;2023-10-13T09:56:25;15.52;;;9.02;;
82779;SDS011;72511;45.120;20.720;2023-10-13T10:06:30;15.32;;;9.13;;
82779;SDS011;72511;45.120;20.720;2023-10-13T10:27:11;16.63;;;8.55;;
82779;SDS011;72511;45.120;20.720;2023-10-13T10:37:15;13.27;;;7.82;;
82779;SDS011;72511;45.120;20.720;2023-10-13T10:57:37;16.65;;;6.57;;
82779;SDS011;72511;45.120;20.720;2023-10-13T11:07:44;11.38;;;6.15;;
82779;SDS011;72511;45.120;20.720;2023-10-13T11:17:51;20.23;;;6.57;;
82779;SDS011;72511;45.120;20.720;2023-10-13T11:27:56;12.27;;;6.10;;
82779;SDS011;72511;45.120;20.720;2023-10-13T11:38:01;13.13;;;7.18;;
82779;SDS011;72511;45.120;20.720;2023-10-13T11:48:14;17.15;;;7.60;;
82779;SDS011;72511;45.120;20.720;2023-10-13T11:58:15;18.25;;;6.30;;
82779;SDS011;72511;45.120;20.720;2023-10-13T12:08:19;8.38;;;6.18;;
82779;SDS011;72511;45.120;20.720;2023-10-13T12:18:24;9.82;;;6.57;;
82779;SDS011;72511;45.120;20.720;2023-10-13T12:28:28;17.85;;;7.65;;
82779;SDS011;72511;45.120;20.720;2023-10-13T12:38:32;13.48;;;5.93;;
82779;SDS011;72511;45.120;20.720;2023-10-13T12:48:49;10.43;;;5.35;;
82779;SDS011;72511;45.120;20.720;2023-10-13T12:58:59;14.05;;;5.65;;
82779;SDS011;72511;45.120;20.720;2023-10-13T13:09:00;11.45;;;4.75;;
82779;SDS011;72511;45.120;20.720;2023-10-13T13:19:01;13.10;;;5.55;;
82779;SDS011;72511;45.120;20.720;2023-10-13T13:29:11;8.43;;;5.68;;
82779;SDS011;72511;45.120;20.720;2023-10-13T13:39:12;10.20;;;5.32;;
82779;SDS011;72511;45.120;20.720;2023-10-13T13:49:19;12.30;;;6.20;;
82779;SDS011;72511;45.120;20.720;2023-10-13T13:59:28;14.88;;;5.88;;
82779;SDS011;72511;45.120;20.720;2023-10-13T14:09:34;11.07;;;4.72;;
82779;SDS011;72511;45.120;20.720;2023-10-13T14:19:41;13.07;;;5.13;;
82779;SDS011;72511;45.120;20.720;2023-10-13T14:29:44;12.30;;;6.18;;
82779;SDS011;72511;45.120;20.720;2023-10-13T14:39:46;18.75;;;5.72;;
82779;SDS011;72511;45.120;20.720;2023-10-13T14:49:47;13.85;;;6.05;;
82779;SDS011;72511;45.120;20.720;2023-10-13T14:59:48;9.48;;;5.75;;
82779;SDS011;72511;45.120;20.720;2023-10-13T15:09:50;18.50;;;6.30;;
82779;SDS011;72511;45.120;20.720;2023-10-13T15:19:51;19.90;;;6.00;;
82779;SDS011;72511;45.120;20.720;2023-10-13T15:29:52;17.55;;;6.60;;
82779;SDS011;72511;45.120;20.720;2023-10-13T15:39:54;23.85;;;7.93;;
82779;SDS011;72511;45.120;20.720;2023-10-13T15:49:56;21.60;;;8.05;;
82779;SDS011;72511;45.120;20.720;2023-10-13T15:59:57;20.25;;;9.23;;
82779;SDS011;72511;45.120;20.720;2023-10-13T16:09:58;21.35;;;8.93;;
82779;SDS011;72511;45.120;20.720;2023-10-13T16:19:59;25.63;;;9.77;;
82779;SDS011;72511;45.120;20.720;2023-10-13T16:30:01;40.45;;;14.70;;
82779;SDS011;72511;45.120;20.720;2023-10-13T16:40:02;31.13;;;12.88;;
82779;SDS011;72511;45.120;20.720;2023-10-13T16:50:07;30.88;;;13.90;;
82779;SDS011;72511;45.120;20.720;2023-10-13T17:00:09;27.27;;;11.30;;
82779;SDS011;72511;45.120;20.720;2023-10-13T17:10:13;23.70;;;11.77;;
82779;SDS011;72511;45.120;20.720;2023-10-13T17:20:15;29.73;;;14.98;;
82779;SDS011;72511;45.120;20.720;2023-10-13T17:30:20;28.75;;;12.95;;
82779;SDS011;72511;45.120;20.720;2023-10-13T17:40:21;24.92;;;12.95;;
82779;SDS011;72511;45.120;20.720;2023-10-13T17:50:26;42.15;;;18.42;;
82779;SDS011;72511;45.120;20.720;2023-10-13T18:00:29;34.45;;;18.17;;
82779;SDS011;72511;45.120;20.720;2023-10-13T18:10:30;32.80;;;17.17;;
82779;SDS011;72511;45.120;20.720;2023-10-13T18:20:31;27.38;;;18.13;;
82779;SDS011;72511;45.120;20.720;2023-10-13T18:30:33;36.22;;;19.15;;
82779;SDS011;72511;45.120;20.720;2023-10-13T18:40:35;29.27;;;20.02;;
82779;SDS011;72511;45.120;20.720;2023-10-13T18:50:40;25.67;;;16.20;;
82779;SDS011;72511;45.120;20.720;2023-10-13T19:00:43;29.90;;;16.38;;
82779;SDS011;72511;45.120;20.720;2023-10-13T19:10:45;28.80;;;16.60;;
82779;SDS011;72511;45.120;20.720;2023-10-13T19:20:47;23.00;;;15.80;;
82779;SDS011;72511;45.120;20.720;2023-10-13T19:30:50;23.20;;;16.05;;
82779;SDS011;72511;45.120;20.720;2023-10-13T19:40:56;20.05;;;13.88;;
82779;SDS011;72511;45.120;20.720;2023-10-13T19:50:57;22.63;;;14.45;;
82779;SDS011;72511;45.120;20.720;2023-10-13T20:01:05;21.80;;;15.18;;
82779;SDS011;72511;45.120;20.720;2023-10-13T20:11:07;25.25;;;17.00;;
82779;SDS011;72511;45.120;20.720;2023-10-13T20:21:15;18.90;;;12.40;;
82779;SDS011;72511;45.120;20.720;2023-10-13T20:31:17;32.70;;;21.25;;
82779;SDS011;72511;45.120;20.720;2023-10-13T20:41:18;40.72;;;23.55;;
82779;SDS011;72511;45.120;20.720;2023-10-13T20:51:20;31.00;;;22.65;;
82779;SDS011;72511;45.120;20.720;2023-10-13T21:01:25;29.45;;;22.10;;
82779;SDS011;72511;45.120;20.720;2023-10-13T21:11:27;26.40;;;21.42;;
82779;SDS011;72511;45.120;20.720;2023-10-13T21:21:28;27.05;;;19.83;;
82779;SDS011;72511;45.120;20.720;2023-10-13T21:31:32;19.80;;;17.58;;
82779;SDS011;72511;45.120;20.720;2023-10-13T21:41:33;21.75;;;15.45;;
82779;SDS011;72511;45.120;20.720;2023-10-13T21:51:37;21.55;;;14.25;;
82779;SDS011;72511;45.120;20.720;2023-10-13T22:01:39;17.52;;;13.25;;
82779;SDS011;72511;45.120;20.720;2023-10-13T22:11:44;17.90;;;12.95;;
82779;SDS011;72511;45.120;20.720;2023-10-13T22:21:45;16.70;;;11.73;;
82779;SDS011;72511;45.120;20.720;2023-10-13T22:31:48;20.27;;;12.10;;
82779;SDS011;72511;45.120;20.720;2023-10-13T22:41:50;19.98;;;11.52;;
82779;SDS011;72511;45.120;20.720;2023-10-13T22:51:52;19.17;;;11.65;;
82779;SDS011;72511;45.120;20.720;2023-10-13T23:01:54;16.23;;;11.75;;
82779;SDS011;72511;45.120;20.720;2023-10-13T23:11:59;12.85;;;9.50;;
82779;SDS011;72511;45.120;20.720;2023-10-13T23:22:12;14.38;;;11.30;;
82779;SDS011;72511;45.120;20.720;2023-10-13T23:32:13;14.02;;;10.63;;
82779;SDS011;72511;45.120;20.720;2023-10-13T23:42:14;16.70;;;10.75;;
82779;SDS011;72511;45.120;20.720;2023-10-13T23:52:24;14.38;;;10.35;;
